TAF and METAR

METAR for N'Djamena International Airport

FTTJ 030300Z 21006KT CAVOK 30/19 Q1007 NOSIG
Report created 3. jun 05:00
wind 6 knots from SSW (210°) Clear sky Temperature 30° with dewpoint at 19° (Humidity 51.84%) Pressure 1007 hPa no significant weather change expected the next couple of hours

TAF for N'Djamena International Airport

TAF FTTJ 022300Z 0300/0406 22006KT 8000 NSC TEMPO 0315/0320 VRB15G25KT 4000 BLDU TS FEW040 FEW050CB
Report created 3. jun 01:00

between 3. jun 02:00 - 4. jun 08:00

wind 6 knots from SW (220°) visibility 8000 meters No significant clouds.

temporarily between 3. jun 17:00 - 3. jun 22:00

wind 15 knots from various directions with gusts up to 25 knots visibility 4000 meters blowing widespread dust thunderstorm some clouds (~25% cover) at 4000 feet some clouds (~25% cover) at 5000 feet of type cumulonimbus
N'Djamena International Airport in Chad at 295m

Latest 5 airports